createdAt,value
2023-04-23T00:00:40.808Z,5.03
2023-04-23T00:03:12.898Z,4.80
2023-04-23T00:05:43.296Z,5.27
2023-04-23T00:08:14.424Z,4.37
2023-04-23T00:10:43.295Z,4.67
2023-04-23T00:13:12.460Z,4.63
2023-04-23T00:15:41.689Z,4.33
2023-04-23T00:18:11.082Z,5.67
2023-04-23T00:20:40.091Z,4.87
2023-04-23T00:23:08.902Z,6.63
2023-04-23T00:25:39.238Z,4.13
2023-04-23T00:28:08.481Z,4.37
2023-04-23T00:30:37.229Z,4.40
2023-04-23T00:33:06.767Z,4.63
2023-04-23T00:35:36.543Z,4.57
2023-04-23T00:38:06.001Z,4.90
2023-04-23T00:40:34.465Z,4.80
2023-04-23T00:43:05.162Z,5.03
2023-04-23T00:45:34.043Z,4.87
2023-04-23T00:48:06.516Z,4.60
2023-04-23T00:50:35.771Z,5.10
2023-04-23T00:53:04.586Z,6.47
2023-04-23T00:55:34.117Z,4.13
2023-04-23T00:58:04.034Z,5.87
2023-04-23T01:00:32.970Z,4.97
2023-04-23T01:03:01.660Z,4.53
2023-04-23T01:05:31.179Z,4.50
2023-04-23T01:07:59.973Z,4.07
2023-04-23T01:10:28.752Z,6.20
2023-04-23T01:12:57.368Z,4.87
2023-04-23T01:15:27.679Z,4.20
2023-04-23T01:17:57.432Z,4.33
2023-04-23T01:20:26.620Z,4.50
2023-04-23T01:22:56.742Z,4.50
2023-04-23T01:25:28.201Z,5.20
2023-04-23T01:27:58.298Z,6.20
2023-04-23T01:30:31.020Z,4.60
2023-04-23T01:33:00.067Z,4.00
2023-04-23T01:35:30.266Z,4.17
2023-04-23T01:38:01.850Z,4.83
2023-04-23T01:40:30.800Z,4.80
2023-04-23T01:43:04.738Z,6.50
2023-04-23T01:45:33.429Z,4.80
2023-04-23T01:48:02.889Z,4.87
2023-04-23T01:50:31.654Z,4.30
2023-04-23T01:53:01.777Z,5.50
2023-04-23T01:55:32.128Z,4.67
2023-04-23T01:58:01.016Z,4.80
2023-04-23T02:00:30.302Z,4.80
2023-04-23T02:02:59.327Z,4.63
2023-04-23T02:05:30.758Z,4.50
2023-04-23T02:07:59.262Z,4.03
2023-04-23T02:10:29.687Z,4.60
2023-04-23T02:12:59.113Z,4.33
2023-04-23T02:15:28.037Z,4.67
2023-04-23T02:17:56.836Z,4.37
2023-04-23T02:20:25.540Z,6.00
2023-04-23T02:22:54.177Z,4.77
2023-04-23T02:25:22.920Z,4.40
2023-04-23T02:27:52.901Z,4.43
2023-04-23T02:30:22.870Z,4.70
2023-04-23T02:32:51.588Z,5.83
2023-04-23T02:35:21.357Z,4.43
2023-04-23T02:37:50.874Z,4.00
2023-04-23T02:40:19.317Z,4.27
2023-04-23T02:42:47.979Z,4.20
2023-04-23T02:45:18.229Z,4.13
2023-04-23T02:47:46.802Z,5.20
2023-04-23T02:50:16.513Z,4.63
2023-04-23T02:52:45.484Z,4.03
2023-04-23T02:55:14.447Z,4.00
2023-04-23T02:57:43.253Z,4.13
2023-04-23T03:00:14.979Z,4.57
2023-04-23T03:02:45.484Z,4.10
2023-04-23T03:05:14.000Z,4.50
2023-04-23T03:07:42.444Z,4.40
2023-04-23T03:10:15.125Z,4.77
2023-04-23T03:12:43.769Z,4.83
2023-04-23T03:15:12.734Z,4.37
2023-04-23T03:17:41.351Z,4.60
2023-04-23T03:20:12.506Z,4.57
2023-04-23T03:23:00.718Z,4.63
2023-04-23T03:25:43.945Z,5.57
2023-04-23T03:28:12.981Z,5.03
2023-04-23T03:30:44.408Z,4.80
2023-04-23T03:33:12.904Z,4.90
2023-04-23T03:35:42.758Z,5.20
2023-04-23T03:38:11.153Z,6.03
2023-04-23T03:40:39.584Z,10.93
2023-04-23T03:43:08.500Z,4.77
2023-04-23T03:45:41.275Z,4.83
2023-04-23T03:48:09.790Z,4.77
2023-04-23T03:50:40.496Z,5.20
2023-04-23T03:53:11.245Z,4.87
2023-04-23T03:55:39.718Z,4.63
2023-04-23T03:58:09.695Z,4.80
2023-04-23T04:00:38.196Z,7.30
2023-04-23T04:03:08.523Z,4.70
2023-04-23T04:05:37.470Z,6.37
2023-04-23T04:08:06.404Z,4.90
2023-04-23T04:10:35.987Z,4.73
2023-04-23T04:13:05.037Z,4.83
2023-04-23T04:15:33.418Z,4.40
2023-04-23T04:18:02.027Z,5.90
2023-04-23T04:20:30.604Z,5.10
2023-04-23T04:22:59.518Z,5.17
2023-04-23T04:25:29.009Z,6.50
2023-04-23T04:27:58.702Z,4.57
2023-04-23T04:30:27.386Z,4.37
2023-04-23T04:32:55.955Z,4.63
2023-04-23T04:35:24.846Z,4.40
2023-04-23T04:38:02.286Z,4.50
2023-04-23T04:40:30.525Z,3.63
2023-04-23T04:43:05.332Z,4.10
2023-04-23T04:45:33.713Z,4.70
2023-04-23T04:48:02.349Z,4.13
2023-04-23T04:50:30.826Z,4.20
2023-04-23T04:52:59.180Z,4.93
2023-04-23T04:55:28.156Z,5.20
2023-04-23T04:57:56.781Z,3.83
2023-04-23T05:00:29.728Z,4.20
2023-04-23T05:03:01.101Z,4.63
2023-04-23T05:05:29.911Z,4.30
2023-04-23T05:08:02.003Z,4.07
2023-04-23T05:10:30.841Z,3.87
2023-04-23T05:12:59.091Z,3.80
2023-04-23T05:15:29.342Z,4.57
2023-04-23T05:17:57.690Z,3.83
2023-04-23T05:20:26.351Z,5.00
2023-04-23T05:23:02.244Z,4.10
2023-04-23T05:25:30.815Z,3.70
2023-04-23T05:27:59.373Z,4.23
2023-04-23T05:30:32.758Z,4.93
2023-04-23T05:33:01.144Z,3.80
2023-04-23T05:35:29.810Z,3.70
2023-04-23T05:38:00.124Z,4.10
2023-04-23T05:40:29.038Z,4.17
2023-04-23T05:42:59.703Z,4.10
2023-04-23T05:45:28.416Z,4.03
2023-04-23T05:47:58.076Z,4.17
2023-04-23T05:50:26.840Z,3.83
2023-04-23T05:52:55.528Z,3.90
2023-04-23T05:55:25.251Z,11.10
2023-04-23T05:57:53.650Z,6.30
2023-04-23T06:00:22.215Z,8.20
2023-04-23T06:02:50.645Z,6.63
2023-04-23T06:05:20.828Z,6.00
2023-04-23T06:07:49.380Z,9.70
2023-04-23T06:10:18.225Z,17.67
2023-04-23T06:12:46.473Z,11.13
2023-04-23T06:15:14.707Z,9.70
2023-04-23T06:17:43.438Z,9.17
2023-04-23T06:20:12.270Z,8.23
2023-04-23T06:22:41.919Z,6.87
2023-04-23T06:25:10.945Z,4.90
2023-04-23T06:27:39.108Z,4.03
2023-04-23T06:30:08.622Z,4.37
2023-04-23T06:32:36.994Z,3.93
2023-04-23T06:35:06.327Z,3.83
2023-04-23T06:37:35.014Z,4.40
2023-04-23T06:40:05.553Z,5.60
2023-04-23T06:42:33.802Z,5.43
2023-04-23T06:45:06.232Z,5.70
2023-04-23T06:47:35.295Z,5.40
2023-04-23T06:50:03.883Z,6.33
2023-04-23T06:52:32.241Z,6.63
2023-04-23T06:55:06.233Z,4.73
2023-04-23T06:57:34.727Z,5.00
2023-04-23T07:00:03.153Z,6.27
2023-04-23T07:02:31.776Z,4.77
2023-04-23T07:05:00.145Z,3.90
2023-04-23T07:07:28.704Z,3.80
2023-04-23T07:09:57.369Z,3.57
2023-04-23T07:12:34.697Z,4.53
2023-04-23T07:15:03.058Z,3.97
2023-04-23T07:17:31.602Z,5.47
2023-04-23T07:20:00.201Z,7.63
2023-04-23T07:22:30.454Z,5.27
2023-04-23T07:24:58.830Z,4.57
2023-04-23T07:27:27.438Z,4.83
2023-04-23T07:29:57.610Z,3.53
2023-04-23T07:32:28.087Z,3.30
2023-04-23T07:35:06.420Z,5.60
2023-04-23T07:37:34.961Z,4.77
2023-04-23T07:40:03.422Z,6.70
2023-04-23T07:42:32.057Z,5.23
2023-04-23T07:45:01.675Z,4.73
2023-04-23T07:47:45.855Z,7.73
2023-04-23T07:50:14.378Z,7.20
2023-04-23T07:52:42.622Z,5.07
2023-04-23T07:55:10.919Z,2.90
2023-04-23T07:57:40.120Z,4.00
2023-04-23T08:00:11.309Z,3.53
2023-04-23T08:02:39.815Z,2.57
2023-04-23T08:05:08.707Z,1.63
2023-04-23T08:07:37.654Z,1.40
2023-04-23T08:10:07.065Z,2.20
2023-04-23T08:12:36.530Z,1.37
2023-04-23T08:15:05.311Z,1.57
2023-04-23T08:17:35.389Z,2.50
2023-04-23T08:20:04.363Z,1.50
2023-04-23T08:22:33.472Z,3.03
2023-04-23T08:25:01.957Z,2.87
2023-04-23T08:27:30.815Z,1.60
2023-04-23T08:29:59.046Z,3.13
2023-04-23T08:32:30.821Z,2.80
2023-04-23T08:35:00.810Z,2.53
2023-04-23T08:37:31.342Z,2.80
2023-04-23T08:40:01.856Z,4.50
2023-04-23T08:42:38.843Z,3.30
2023-04-23T08:45:08.407Z,2.53
2023-04-23T08:47:37.124Z,2.77
2023-04-23T08:50:08.311Z,3.30
2023-04-23T08:52:43.364Z,2.63
2023-04-23T08:55:16.010Z,4.20
2023-04-23T08:57:48.227Z,2.57
2023-04-23T09:00:45.091Z,2.30
2023-04-23T09:03:46.849Z,2.00
2023-04-23T09:09:23.913Z,2.10
2023-04-23T09:11:56.628Z,1.90
2023-04-23T09:14:26.452Z,1.83
2023-04-23T09:16:56.160Z,2.17
2023-04-23T09:19:28.401Z,2.57
2023-04-23T09:22:01.031Z,2.80
2023-04-23T09:24:30.369Z,2.33
2023-04-23T09:26:59.987Z,6.10
2023-04-23T09:29:28.526Z,2.47
2023-04-23T09:32:11.576Z,3.60
2023-04-23T09:34:41.249Z,2.77
2023-04-23T09:37:11.809Z,2.73
2023-04-23T09:39:40.744Z,3.97
2023-04-23T09:42:13.530Z,12.83
2023-04-23T09:44:41.870Z,6.77
2023-04-23T09:47:12.212Z,6.63
2023-04-23T09:49:48.089Z,4.03
2023-04-23T09:52:18.134Z,4.47
2023-04-23T09:54:48.224Z,3.97
2023-04-23T09:57:16.938Z,4.00
2023-04-23T09:59:50.032Z,3.43
2023-04-23T10:02:28.948Z,2.43
2023-04-23T10:05:10.097Z,2.40
2023-04-23T10:07:58.164Z,2.47
2023-04-23T10:10:27.293Z,3.93
2023-04-23T10:12:57.985Z,2.40
2023-04-23T10:15:27.926Z,2.97
2023-04-23T10:17:56.507Z,1.97
2023-04-23T10:20:25.045Z,1.50
2023-04-23T10:22:56.404Z,1.60
2023-04-23T10:25:26.542Z,1.70
2023-04-23T10:27:57.331Z,1.70
2023-04-23T10:30:25.651Z,2.33
2023-04-23T10:32:56.235Z,2.10
2023-04-23T10:35:27.773Z,1.70
2023-04-23T10:37:59.531Z,2.07
2023-04-23T10:40:34.377Z,1.53
2023-04-23T10:43:04.282Z,1.60
2023-04-23T10:45:37.711Z,1.80
2023-04-23T10:48:10.694Z,1.40
2023-04-23T10:50:50.937Z,1.63
2023-04-23T10:53:37.028Z,1.60
2023-04-23T10:56:09.275Z,1.90
2023-04-23T10:58:52.760Z,2.17
2023-04-23T11:01:27.978Z,1.80
2023-04-23T11:03:57.299Z,1.53
2023-04-23T11:06:58.285Z,1.20
2023-04-23T11:09:33.794Z,1.87
2023-04-23T11:12:02.983Z,1.57
2023-04-23T11:14:42.486Z,2.50
2023-04-23T11:17:12.938Z,1.87
2023-04-23T11:19:43.212Z,1.63
2023-04-23T11:22:17.308Z,1.70
2023-04-23T11:24:50.977Z,1.53
2023-04-23T11:27:20.434Z,1.43
2023-04-23T11:29:48.818Z,1.40
2023-04-23T11:32:18.290Z,1.67
2023-04-23T11:34:49.829Z,1.70
2023-04-23T11:37:19.877Z,1.50
2023-04-23T11:39:51.660Z,1.73
2023-04-23T11:42:20.822Z,1.83
2023-04-23T11:44:49.504Z,1.70
2023-04-23T11:47:22.502Z,1.30
2023-04-23T11:49:50.981Z,1.90
2023-04-23T11:52:19.555Z,3.00
2023-04-23T11:54:50.921Z,3.27
2023-04-23T11:57:19.205Z,1.50
2023-04-23T11:59:47.464Z,2.80
2023-04-23T12:02:16.659Z,3.43
2023-04-23T12:04:45.120Z,4.13
2023-04-23T12:07:25.706Z,4.13
2023-04-23T12:10:00.170Z,4.80
2023-04-23T12:12:34.865Z,7.70
2023-04-23T12:15:08.483Z,4.53
2023-04-23T12:17:37.035Z,4.13
2023-04-23T12:20:07.230Z,5.47
2023-04-23T12:22:37.139Z,4.40
2023-04-23T12:25:09.546Z,3.50
2023-04-23T12:27:42.363Z,4.93
2023-04-23T12:30:12.857Z,3.43
2023-04-23T12:32:42.809Z,2.27
2023-04-23T12:35:11.846Z,3.03
2023-04-23T12:37:41.992Z,2.53
2023-04-23T12:40:13.320Z,4.30
2023-04-23T12:42:41.792Z,3.53
2023-04-23T12:45:11.186Z,2.27
2023-04-23T12:47:39.654Z,2.00
2023-04-23T12:50:09.108Z,1.97
2023-04-23T12:52:43.637Z,2.13
2023-04-23T12:55:13.327Z,3.73
2023-04-23T12:57:41.638Z,2.37
2023-04-23T13:00:11.158Z,2.60
2023-04-23T13:02:39.957Z,2.10
2023-04-23T13:05:09.796Z,2.00
2023-04-23T13:07:38.586Z,1.90
2023-04-23T13:10:08.076Z,1.70
2023-04-23T13:12:38.403Z,1.70
2023-04-23T13:15:08.425Z,2.00
2023-04-23T13:17:37.688Z,1.80
2023-04-23T13:20:07.560Z,1.70
2023-04-23T13:22:35.935Z,1.70
2023-04-23T13:25:04.417Z,1.63
2023-04-23T13:27:33.886Z,1.47
2023-04-23T13:30:03.718Z,1.70
2023-04-23T13:32:33.039Z,1.70
2023-04-23T13:35:03.967Z,1.20
2023-04-23T13:37:33.759Z,2.07
2023-04-23T13:40:02.674Z,1.87
2023-04-23T13:42:31.045Z,1.50
2023-04-23T13:44:59.148Z,1.50
2023-04-23T13:47:31.806Z,1.90
2023-04-23T13:50:00.339Z,1.67
2023-04-23T13:52:28.737Z,2.07
2023-04-23T13:54:57.116Z,1.70
2023-04-23T13:57:27.784Z,1.50
2023-04-23T13:59:56.223Z,1.20
2023-04-23T14:02:24.881Z,1.30
2023-04-23T14:04:54.877Z,1.63
2023-04-23T14:07:23.177Z,1.40
2023-04-23T14:09:53.000Z,1.40
2023-04-23T14:12:21.728Z,1.60
2023-04-23T14:14:50.127Z,1.40
2023-04-23T14:17:18.210Z,1.50
2023-04-23T14:19:46.762Z,1.60
2023-04-23T14:22:16.394Z,1.50
2023-04-23T14:24:46.950Z,1.27
2023-04-23T14:27:15.168Z,1.00
2023-04-23T14:29:58.563Z,1.50
2023-04-23T14:32:27.117Z,1.53
2023-04-23T14:34:58.717Z,1.73
2023-04-23T14:37:29.173Z,1.30
2023-04-23T14:39:57.776Z,2.43
2023-04-23T14:42:26.128Z,1.80
2023-04-23T14:44:59.052Z,1.67
2023-04-23T14:47:27.441Z,1.83
2023-04-23T14:49:57.907Z,1.70
2023-04-23T14:52:26.350Z,1.60
2023-04-23T14:54:56.534Z,1.63
2023-04-23T14:57:25.566Z,1.60
2023-04-23T14:59:54.699Z,1.60
2023-04-23T15:02:23.940Z,1.50
2023-04-23T15:04:52.902Z,1.53
2023-04-23T15:07:21.462Z,1.93
2023-04-23T15:09:49.721Z,1.73
2023-04-23T15:12:42.645Z,1.53
2023-04-23T15:15:16.773Z,2.40
2023-04-23T15:17:46.510Z,1.30
2023-04-23T15:23:47.895Z,1.60
2023-04-23T15:26:25.246Z,1.50
2023-04-23T15:28:57.631Z,2.07
2023-04-23T15:31:59.318Z,1.43
2023-04-23T15:34:34.240Z,1.63
2023-04-23T15:37:04.696Z,1.60
2023-04-23T15:39:49.459Z,1.90
2023-04-23T15:42:51.227Z,1.53
2023-04-23T15:45:27.984Z,1.50
2023-04-23T15:48:07.976Z,1.23
2023-04-23T15:50:40.529Z,1.63
2023-04-23T15:57:15.348Z,1.00
2023-04-23T16:00:17.759Z,1.53
2023-04-23T16:02:48.024Z,1.27
2023-04-23T16:05:24.190Z,1.30
2023-04-23T16:07:57.369Z,1.60
2023-04-23T16:10:27.697Z,2.13
2023-04-23T16:13:04.813Z,1.53
2023-04-23T16:15:42.664Z,1.50
2023-04-23T16:18:23.749Z,1.47
2023-04-23T16:20:54.829Z,3.00
2023-04-23T16:23:29.519Z,1.63
2023-04-23T16:26:10.609Z,1.10
2023-04-23T16:28:45.828Z,1.27
2023-04-23T16:31:22.893Z,1.73
2023-04-23T16:34:03.022Z,1.77
2023-04-23T16:36:57.375Z,1.37
2023-04-23T16:39:39.317Z,1.70
2023-04-23T16:42:10.595Z,1.50
2023-04-23T16:44:39.752Z,1.20
2023-04-23T16:47:08.175Z,1.60
2023-04-23T16:49:38.659Z,1.87
2023-04-23T16:52:18.554Z,1.40
2023-04-23T16:54:50.289Z,1.50
2023-04-23T16:57:25.812Z,1.50
2023-04-23T16:59:54.888Z,1.13
2023-04-23T17:02:33.701Z,2.20
2023-04-23T17:05:12.876Z,1.40
2023-04-23T17:08:03.077Z,1.80
2023-04-23T17:10:58.908Z,1.63
2023-04-23T17:13:32.936Z,1.20
2023-04-23T17:16:08.531Z,1.87
2023-04-23T17:18:37.594Z,2.73
2023-04-23T17:21:08.021Z,2.10
2023-04-23T17:23:37.143Z,2.37
2023-04-23T17:26:40.898Z,2.53
2023-04-23T17:29:27.614Z,2.77
2023-04-23T17:32:36.504Z,2.67
2023-04-23T17:35:11.281Z,4.03
2023-04-23T17:41:22.570Z,3.17
2023-04-23T17:44:17.252Z,2.60
2023-04-23T17:46:46.102Z,3.00
2023-04-23T17:49:22.469Z,2.33
2023-04-23T17:51:56.185Z,2.53
2023-04-23T17:54:26.717Z,2.47
2023-04-23T17:56:55.576Z,2.30
2023-04-23T17:59:27.942Z,2.20
2023-04-23T18:01:59.330Z,2.60
2023-04-23T18:04:28.561Z,2.60
2023-04-23T18:06:57.997Z,2.13
2023-04-23T18:09:28.019Z,2.10
2023-04-23T18:11:59.171Z,2.03
2023-04-23T18:14:29.548Z,2.27
2023-04-23T18:16:59.062Z,2.17
2023-04-23T18:19:27.545Z,2.10
2023-04-23T18:21:56.678Z,2.17
2023-04-23T18:24:25.192Z,2.60
2023-04-23T18:26:55.030Z,5.27
2023-04-23T18:29:25.478Z,3.73
2023-04-23T18:31:53.836Z,3.13
2023-04-23T18:34:23.895Z,2.80
2023-04-23T18:36:55.960Z,2.90
2023-04-23T18:39:24.524Z,1.93
2023-04-23T18:41:54.290Z,3.23
2023-04-23T18:44:23.212Z,3.07
2023-04-23T18:46:56.955Z,3.73
2023-04-23T18:49:46.416Z,4.60
2023-04-23T18:52:14.789Z,4.17
2023-04-23T18:54:44.244Z,3.57
2023-04-23T18:57:14.228Z,2.73
2023-04-23T18:59:47.516Z,2.87
2023-04-23T19:02:34.543Z,2.93
2023-04-23T19:05:07.183Z,2.60
2023-04-23T19:07:37.220Z,2.30
2023-04-23T19:10:07.636Z,3.13
2023-04-23T19:12:37.485Z,3.80
2023-04-23T19:15:06.614Z,4.77
2023-04-23T19:17:36.651Z,3.73
2023-04-23T19:20:05.366Z,4.20
2023-04-23T19:22:33.700Z,3.50
2023-04-23T19:25:01.941Z,3.40
2023-04-23T19:27:30.254Z,3.77
2023-04-23T19:30:01.134Z,3.30
2023-04-23T19:32:29.781Z,3.30
2023-04-23T19:34:58.443Z,3.43
2023-04-23T19:37:26.882Z,3.33
2023-04-23T19:39:55.337Z,2.83
2023-04-23T19:42:23.704Z,3.40
2023-04-23T19:44:53.217Z,3.60
2023-04-23T19:47:22.888Z,3.90
2023-04-23T19:49:51.445Z,3.80
2023-04-23T19:52:23.050Z,3.10
2023-04-23T19:54:51.302Z,3.60
2023-04-23T19:57:22.218Z,3.90
2023-04-23T19:59:51.149Z,3.90
2023-04-23T20:02:24.775Z,3.80
2023-04-23T20:04:55.032Z,5.07
2023-04-23T20:07:23.554Z,4.03
2023-04-23T20:09:51.845Z,3.87
2023-04-23T20:12:20.902Z,3.90
2023-04-23T20:14:58.974Z,3.87
2023-04-23T20:17:30.101Z,5.93
2023-04-23T20:20:01.578Z,4.07
2023-04-23T20:22:30.473Z,5.27
2023-04-23T20:25:01.821Z,5.00
2023-04-23T20:27:30.757Z,5.73
2023-04-23T20:29:59.204Z,5.60
2023-04-23T20:32:28.923Z,4.87
2023-04-23T20:34:59.032Z,4.80
2023-04-23T20:37:28.460Z,3.40
2023-04-23T20:39:58.693Z,4.27
2023-04-23T20:42:31.427Z,3.70
2023-04-23T20:45:00.672Z,2.70
2023-04-23T20:47:30.702Z,3.33
2023-04-23T20:49:59.055Z,2.97
2023-04-23T20:52:29.998Z,3.47
2023-04-23T20:54:59.764Z,2.97
2023-04-23T20:57:28.637Z,2.70
2023-04-23T20:59:56.977Z,3.97
2023-04-23T21:02:25.957Z,3.07
2023-04-23T21:04:55.630Z,2.83
2023-04-23T21:07:24.070Z,2.80
2023-04-23T21:09:52.773Z,2.73
2023-04-23T21:12:21.426Z,2.70
2023-04-23T21:14:50.205Z,4.00
2023-04-23T21:17:18.518Z,2.37
2023-04-23T21:19:46.922Z,5.37
2023-04-23T21:22:18.932Z,2.80
2023-04-23T21:24:47.423Z,3.07
2023-04-23T21:27:21.757Z,2.70
2023-04-23T21:29:50.225Z,2.80
2023-04-23T21:32:18.818Z,2.57
2023-04-23T21:34:47.455Z,2.50
2023-04-23T21:37:17.127Z,3.67
2023-04-23T21:39:45.809Z,2.60
2023-04-23T21:42:14.338Z,2.80
2023-04-23T21:44:43.634Z,3.10
2023-04-23T21:47:13.717Z,3.57
2023-04-23T21:49:43.620Z,2.50
2023-04-23T21:52:13.264Z,2.37
2023-04-23T21:54:42.974Z,2.60
2023-04-23T21:57:11.214Z,2.37
2023-04-23T21:59:39.473Z,2.70
2023-04-23T22:02:08.250Z,3.03
2023-04-23T22:04:37.267Z,2.60
2023-04-23T22:07:07.184Z,2.57
2023-04-23T22:09:35.621Z,2.73
2023-04-23T22:12:06.583Z,2.67
2023-04-23T22:14:35.056Z,2.67
2023-04-23T22:17:05.226Z,3.37
2023-04-23T22:19:33.512Z,2.67
2023-04-23T22:22:02.065Z,3.43
2023-04-23T22:24:30.473Z,3.17
2023-04-23T22:26:59.359Z,2.60
2023-04-23T22:29:30.075Z,4.13
2023-04-23T22:31:58.378Z,3.33
2023-04-23T22:34:31.486Z,2.87
2023-04-23T22:37:15.966Z,2.50
2023-04-23T22:42:43.535Z,4.37
2023-04-23T22:45:13.101Z,3.57
2023-04-23T22:47:42.064Z,3.33
2023-04-23T22:50:12.490Z,2.83
2023-04-23T22:53:00.602Z,2.77
2023-04-23T22:55:32.217Z,2.30
2023-04-23T22:58:01.344Z,3.10
2023-04-23T23:00:30.854Z,2.30
2023-04-23T23:03:06.510Z,3.47
2023-04-23T23:05:35.501Z,2.27
2023-04-23T23:08:05.271Z,2.63
2023-04-23T23:10:33.602Z,3.07
2023-04-23T23:13:02.301Z,2.47
2023-04-23T23:15:32.575Z,2.10
2023-04-23T23:18:19.028Z,1.97
2023-04-23T23:20:47.509Z,2.07
2023-04-23T23:23:15.790Z,2.53
2023-04-23T23:25:44.078Z,2.83
2023-04-23T23:28:12.481Z,2.40
2023-04-23T23:30:43.231Z,1.97
2023-04-23T23:33:12.539Z,3.13
2023-04-23T23:35:43.922Z,3.20
2023-04-23T23:38:13.422Z,2.90
2023-04-23T23:46:21.322Z,2.30
2023-04-23T23:49:17.189Z,2.27
2023-04-23T23:51:45.787Z,2.10
2023-04-23T23:54:14.571Z,2.13
2023-04-23T23:56:42.934Z,2.53
2023-04-23T23:59:11.151Z,3.43
